createdAt,value
2023-02-27T00:02:19.527Z,101459.28
2023-02-27T00:04:47.352Z,101472.52
2023-02-27T00:07:15.317Z,101460.91
2023-02-27T00:09:43.304Z,101457.29
2023-02-27T00:12:13.174Z,101462.09
2023-02-27T00:14:42.373Z,101472.13
2023-02-27T00:17:10.168Z,101462.88
2023-02-27T00:19:37.874Z,101479.75
2023-02-27T00:22:05.567Z,101473.34
2023-02-27T00:24:33.332Z,101468.11
2023-02-27T00:27:01.241Z,101477.37
2023-02-27T00:29:29.020Z,101471.74
2023-02-27T00:31:56.862Z,101473.34
2023-02-27T00:34:24.655Z,101470.92
2023-02-27T00:36:52.400Z,101480.57
2023-02-27T00:39:20.200Z,101475.34
2023-02-27T00:41:47.983Z,101470.92
2023-02-27T00:44:15.681Z,101472.13
2023-02-27T00:46:43.996Z,101468.50
2023-02-27T00:49:11.633Z,101469.71
2023-02-27T00:51:39.242Z,101488.62
2023-02-27T00:54:07.080Z,101488.62
2023-02-27T00:56:35.835Z,101471.31
2023-02-27T00:59:03.733Z,101467.33
2023-02-27T01:01:31.467Z,101474.55
2023-02-27T01:03:59.197Z,101459.31
2023-02-27T01:06:27.163Z,101468.14
2023-02-27T01:08:54.875Z,101465.76
2023-02-27T01:11:23.115Z,101475.80
2023-02-27T01:13:50.853Z,101464.13
2023-02-27T01:16:18.599Z,101458.53
2023-02-27T01:18:46.348Z,101461.73
2023-02-27T01:21:14.106Z,101454.51
2023-02-27T01:23:41.817Z,101453.30
2023-02-27T01:26:09.623Z,101443.26
2023-02-27T01:28:37.528Z,101442.44
2023-02-27T01:31:05.510Z,101432.80
2023-02-27T01:33:33.449Z,101438.02
2023-02-27T01:36:01.155Z,101443.65
2023-02-27T01:38:28.959Z,101438.42
2023-02-27T01:40:58.366Z,101450.45
2023-02-27T01:43:26.140Z,101447.25
2023-02-27T01:45:54.088Z,101455.69
2023-02-27T01:48:27.399Z,101446.86
2023-02-27T01:51:21.064Z,101446.86
2023-02-27T01:53:54.303Z,101467.72
2023-02-27T01:56:28.648Z,101462.48
2023-02-27T01:59:02.855Z,101456.86
2023-02-27T02:01:32.979Z,101453.66
2023-02-27T02:04:34.145Z,101457.68
2023-02-27T02:07:08.348Z,101459.67
2023-02-27T02:09:41.265Z,101460.46
2023-02-27T02:12:09.613Z,101459.25
2023-02-27T02:14:37.259Z,101456.05
2023-02-27T02:17:10.933Z,101445.19
2023-02-27T02:19:56.029Z,101465.69
2023-02-27T02:22:47.742Z,101452.41
2023-02-27T02:25:52.959Z,101460.82
2023-02-27T02:28:43.391Z,101449.57
2023-02-27T02:31:28.617Z,101454.80
2023-02-27T02:34:48.082Z,101448.78
2023-02-27T02:38:07.205Z,101452.38
2023-02-27T02:40:52.543Z,101457.62
2023-02-27T02:43:53.158Z,101461.24
2023-02-27T02:46:45.751Z,101458.82
2023-02-27T02:49:25.151Z,101459.25
2023-02-27T02:52:03.880Z,101463.66
2023-02-27T02:54:55.899Z,101470.11
2023-02-27T02:57:35.807Z,101460.46
2023-02-27T03:00:14.534Z,101459.25
2023-02-27T03:02:51.839Z,101464.09
2023-02-27T03:05:35.188Z,101466.12
2023-02-27T03:08:13.524Z,101472.13
2023-02-27T03:10:57.483Z,101461.31
2023-02-27T03:13:43.146Z,101457.32
2023-02-27T03:16:19.429Z,101463.34
2023-02-27T03:19:19.685Z,101464.55
2023-02-27T03:21:50.798Z,101450.48
2023-02-27T03:24:24.651Z,101463.77
2023-02-27T03:26:54.569Z,101459.34
2023-02-27T03:29:31.164Z,101460.95
2023-02-27T03:32:05.566Z,101464.19
2023-02-27T03:34:41.171Z,101471.80
2023-02-27T03:37:24.219Z,101461.73
2023-02-27T03:39:55.844Z,101468.60
2023-02-27T03:42:37.969Z,101476.22
2023-02-27T03:45:20.674Z,101475.41
2023-02-27T03:47:48.701Z,101480.21
2023-02-27T03:50:16.965Z,101469.78
2023-02-27T03:52:45.464Z,101474.59
2023-02-27T03:55:17.833Z,101466.97
2023-02-27T03:57:48.936Z,101477.79
2023-02-27T04:00:20.334Z,101449.27
2023-02-27T04:02:52.364Z,101482.63
2023-02-27T04:05:21.324Z,101482.20
2023-02-27T04:08:11.338Z,101485.80
2023-02-27T04:11:00.565Z,101497.05
2023-02-27T04:14:13.997Z,101493.06
2023-02-27T04:16:47.863Z,101491.82
2023-02-27T04:19:38.104Z,101501.47
2023-02-27T04:22:22.952Z,101492.99
2023-02-27T04:25:13.531Z,101497.80
2023-02-27T04:28:05.436Z,101491.36
2023-02-27T04:31:10.616Z,101499.44
2023-02-27T04:33:52.960Z,101496.98
2023-02-27T04:36:43.993Z,101496.59
2023-02-27T04:39:33.520Z,101514.25
2023-02-27T04:42:06.417Z,101509.05
2023-02-27T04:44:37.798Z,101502.61
2023-02-27T04:47:08.526Z,101505.42
2023-02-27T04:49:50.071Z,101509.05
2023-02-27T04:52:44.798Z,101505.42
2023-02-27T04:55:15.353Z,101500.98
2023-02-27T04:58:07.408Z,101511.83
2023-02-27T05:00:38.498Z,101520.66
2023-02-27T05:03:30.780Z,101513.04
2023-02-27T05:06:01.140Z,101512.62
2023-02-27T05:08:34.472Z,101518.24
2023-02-27T05:11:27.392Z,101513.83
2023-02-27T05:14:01.354Z,101509.02
2023-02-27T05:16:51.230Z,101512.62
2023-02-27T05:19:21.790Z,101504.96
2023-02-27T05:22:01.718Z,101502.15
2023-02-27T05:24:32.117Z,101504.96
2023-02-27T05:27:04.614Z,101512.19
2023-02-27T05:29:35.688Z,101509.38
2023-02-27T05:32:28.946Z,101513.83
2023-02-27T05:35:17.735Z,101507.41
2023-02-27T05:37:54.927Z,101504.60
2023-02-27T05:40:31.089Z,101509.84
2023-02-27T05:43:20.122Z,101507.02
2023-02-27T05:45:51.349Z,101526.68
2023-02-27T05:48:25.324Z,101510.23
2023-02-27T05:50:54.722Z,101502.61
2023-02-27T05:53:26.172Z,101495.77
2023-02-27T05:55:57.648Z,101517.88
2023-02-27T05:58:27.936Z,101509.45
2023-02-27T06:00:57.866Z,101517.06
2023-02-27T06:03:27.272Z,101527.10
2023-02-27T06:05:58.284Z,101517.88
2023-02-27T06:08:26.636Z,101518.27
2023-02-27T06:10:56.312Z,101519.88
2023-02-27T06:13:24.985Z,101516.28
2023-02-27T06:15:53.085Z,101517.88
2023-02-27T06:18:21.486Z,101525.50
2023-02-27T06:20:49.785Z,101520.30
2023-02-27T06:23:18.334Z,101519.52
2023-02-27T06:25:46.580Z,101525.14
2023-02-27T06:28:14.383Z,101536.81
2023-02-27T06:30:42.392Z,101519.52
2023-02-27T06:33:10.949Z,101522.75
2023-02-27T06:35:38.840Z,101524.35
2023-02-27T06:38:06.574Z,101531.62
2023-02-27T06:40:34.218Z,101527.20
2023-02-27T06:43:02.280Z,101535.63
2023-02-27T06:45:29.969Z,101536.42
2023-02-27T06:47:57.617Z,101544.89
2023-02-27T06:50:25.426Z,101549.30
2023-02-27T06:52:53.238Z,101546.10
2023-02-27T06:55:23.754Z,101540.51
2023-02-27T06:57:51.498Z,101538.13
2023-02-27T07:00:19.855Z,101541.33
2023-02-27T07:02:47.963Z,101538.91
2023-02-27T07:05:15.661Z,101554.21
2023-02-27T07:07:43.408Z,101554.67
2023-02-27T07:10:14.184Z,101563.10
2023-02-27T07:12:42.256Z,101552.70
2023-02-27T07:15:10.578Z,101571.18
2023-02-27T07:17:38.955Z,101561.17
2023-02-27T07:20:11.792Z,101570.82
2023-02-27T07:22:40.934Z,101579.69
2023-02-27T07:25:09.652Z,101581.32
2023-02-27T07:27:37.351Z,101574.48
2023-02-27T07:30:05.503Z,101589.00
2023-02-27T07:32:33.204Z,101583.38
2023-02-27T07:35:00.851Z,101584.16
2023-02-27T07:37:28.609Z,101582.17
2023-02-27T07:39:57.127Z,101580.93
2023-02-27T07:42:24.903Z,101589.00
2023-02-27T07:44:52.592Z,101597.84
2023-02-27T07:47:20.321Z,101590.64
2023-02-27T07:49:48.009Z,101591.06
2023-02-27T07:52:15.722Z,101584.62
2023-02-27T07:54:43.579Z,101593.48
2023-02-27T07:57:11.340Z,101595.48
2023-02-27T07:59:39.017Z,101585.83
2023-02-27T08:02:06.772Z,101594.27
2023-02-27T08:04:34.606Z,101592.27
2023-02-27T08:07:02.434Z,101593.48
2023-02-27T08:09:31.832Z,101601.10
2023-02-27T08:11:59.852Z,101599.92
2023-02-27T08:14:27.614Z,101605.55
2023-02-27T08:16:55.372Z,101593.05
2023-02-27T08:19:23.008Z,101607.15
2023-02-27T08:21:50.910Z,101601.13
2023-02-27T08:24:18.988Z,101616.41
2023-02-27T08:26:46.746Z,101626.09
2023-02-27T08:29:16.883Z,101628.51
2023-02-27T08:31:44.985Z,101616.41
2023-02-27T08:34:12.770Z,101624.05
2023-02-27T08:36:40.963Z,101626.48
2023-02-27T08:39:09.433Z,101631.71
2023-02-27T08:41:37.323Z,101619.22
2023-02-27T08:44:05.316Z,101624.48
2023-02-27T08:46:33.078Z,101627.30
2023-02-27T08:49:00.832Z,101623.27
2023-02-27T08:51:29.179Z,101631.32
2023-02-27T08:53:59.979Z,101631.32
2023-02-27T08:56:29.048Z,101630.92
2023-02-27T08:58:57.376Z,101624.45
2023-02-27T09:01:28.458Z,101649.43
2023-02-27T09:03:56.673Z,101634.13
2023-02-27T09:06:26.263Z,101653.88
2023-02-27T09:08:54.540Z,101644.59
2023-02-27T09:11:22.766Z,101644.20
2023-02-27T09:13:50.569Z,101656.27
2023-02-27T09:16:19.489Z,101662.32
2023-02-27T09:18:47.564Z,101658.69
2023-02-27T09:21:15.751Z,101650.22
2023-02-27T09:23:43.470Z,101675.23
2023-02-27T09:26:11.659Z,101668.37
2023-02-27T09:28:41.633Z,101658.30
2023-02-27T09:31:10.390Z,101667.55
2023-02-27T09:33:39.528Z,101663.52
2023-02-27T09:36:07.957Z,101673.60
2023-02-27T09:38:36.987Z,101672.39
2023-02-27T09:41:06.324Z,101691.32
2023-02-27T09:44:02.622Z,101676.80
2023-02-27T09:46:30.733Z,101677.20
2023-02-27T09:49:03.076Z,101681.61
2023-02-27T09:51:30.874Z,101686.41
2023-02-27T09:54:02.850Z,101685.60
2023-02-27T09:56:33.892Z,101702.15
2023-02-27T09:59:28.752Z,101691.65
2023-02-27T10:02:30.388Z,101701.72
2023-02-27T10:05:37.062Z,101710.59
2023-02-27T10:08:27.511Z,101701.72
2023-02-27T10:11:06.517Z,101718.23
2023-02-27T10:13:48.565Z,101722.71
2023-02-27T10:16:20.603Z,101725.10
2023-02-27T10:18:56.168Z,101734.39
2023-02-27T10:21:32.421Z,101730.37
2023-02-27T10:24:08.459Z,101738.45
2023-02-27T10:26:42.734Z,101738.45
2023-02-27T10:29:42.830Z,101745.67
2023-02-27T10:32:16.793Z,101727.12
2023-02-27T10:34:48.413Z,101742.04
2023-02-27T10:37:19.625Z,101753.32
2023-02-27T10:39:53.147Z,101754.53
2023-02-27T10:42:21.413Z,101742.83
2023-02-27T10:44:54.683Z,101760.58
2023-02-27T10:47:25.022Z,101754.11
2023-02-27T10:49:54.343Z,101758.55
2023-02-27T10:52:22.498Z,101762.58
2023-02-27T10:54:50.230Z,101771.86
2023-02-27T10:57:44.236Z,101768.63
2023-02-27T11:00:24.677Z,101766.17
2023-02-27T11:02:55.759Z,101771.05
2023-02-27T11:05:26.133Z,101775.10
2023-02-27T11:07:54.802Z,101767.84
2023-02-27T11:10:29.275Z,101778.30
2023-02-27T11:13:04.778Z,101776.70
2023-02-27T11:15:35.832Z,101769.45
2023-02-27T11:18:27.873Z,101768.23
2023-02-27T11:21:11.253Z,101767.84
2023-02-27T11:23:39.207Z,101779.91
2023-02-27T11:26:25.505Z,101785.59
2023-02-27T11:29:16.170Z,101779.13
2023-02-27T11:31:52.424Z,101768.23
2023-02-27T11:34:39.464Z,101769.05
2023-02-27T11:37:19.828Z,101783.57
2023-02-27T11:39:54.177Z,101789.59
2023-02-27T11:42:32.128Z,101784.38
2023-02-27T11:45:04.138Z,101775.91
2023-02-27T11:47:36.963Z,101769.45
2023-02-27T11:50:11.086Z,101782.72
2023-02-27T11:53:17.094Z,101783.11
2023-02-27T11:55:47.170Z,101778.30
2023-02-27T11:58:20.121Z,101769.84
2023-02-27T12:00:57.227Z,101780.30
2023-02-27T12:03:47.271Z,101779.05
2023-02-27T12:06:20.690Z,101781.84
2023-02-27T12:09:03.984Z,101779.84
2023-02-27T12:11:45.853Z,101778.24
2023-02-27T12:14:22.483Z,101783.90
2023-02-27T12:17:16.653Z,101787.10
2023-02-27T12:19:48.431Z,101796.39
2023-02-27T12:22:25.679Z,101788.77
2023-02-27T12:25:01.989Z,101788.34
2023-02-27T12:27:55.417Z,101787.92
2023-02-27T12:30:27.399Z,101788.31
2023-02-27T12:33:19.166Z,101787.10
2023-02-27T12:35:55.492Z,101793.15
2023-02-27T12:38:25.385Z,101778.63
2023-02-27T12:41:03.998Z,101789.91
2023-02-27T12:43:47.251Z,101798.38
2023-02-27T12:46:15.081Z,101795.18
2023-02-27T12:48:48.993Z,101794.39
2023-02-27T12:51:30.599Z,101797.63
2023-02-27T12:54:30.668Z,101800.48
2023-02-27T12:57:07.699Z,101796.84
2023-02-27T13:00:07.694Z,101794.42
2023-02-27T13:03:27.149Z,101809.80
2023-02-27T13:06:04.231Z,101800.51
2023-02-27T13:08:48.473Z,101813.42
2023-02-27T13:11:28.534Z,101812.21
2023-02-27T13:14:18.025Z,101803.35
2023-02-27T13:16:51.423Z,101811.79
2023-02-27T13:19:27.838Z,101810.97
2023-02-27T13:22:01.931Z,101799.30
2023-02-27T13:24:32.392Z,101805.74
2023-02-27T13:27:08.559Z,101807.77
2023-02-27T13:29:48.667Z,101804.10
2023-02-27T13:32:55.291Z,101807.77
2023-02-27T13:35:44.194Z,101817.02
2023-02-27T13:38:41.524Z,101812.61
2023-02-27T13:41:21.616Z,101806.16
2023-02-27T13:43:52.823Z,101810.19
2023-02-27T13:46:26.889Z,101801.72
2023-02-27T13:49:06.659Z,101808.59
2023-02-27T13:51:38.627Z,101805.74
2023-02-27T13:54:09.288Z,101804.95
2023-02-27T13:56:37.254Z,101811.82
2023-02-27T13:59:30.121Z,101810.19
2023-02-27T14:02:01.435Z,101810.19
2023-02-27T14:04:36.323Z,101807.80
2023-02-27T14:07:19.717Z,101811.01
2023-02-27T14:09:51.474Z,101810.19
2023-02-27T14:12:45.521Z,101810.58
2023-02-27T14:15:19.729Z,101822.29
2023-02-27T14:18:12.384Z,101817.05
2023-02-27T14:20:43.515Z,101815.45
2023-02-27T14:23:16.996Z,101821.86
2023-02-27T14:25:57.094Z,101824.70
2023-02-27T14:28:57.691Z,101820.69
2023-02-27T14:31:41.809Z,101822.68
2023-02-27T14:34:16.367Z,101819.44
2023-02-27T14:36:50.658Z,101817.84
2023-02-27T14:39:29.265Z,101817.05
2023-02-27T14:42:27.474Z,101809.01
2023-02-27T14:44:56.118Z,101830.73
2023-02-27T14:47:35.889Z,101819.87
2023-02-27T14:50:05.245Z,101825.10
2023-02-27T14:52:41.720Z,101817.84
2023-02-27T14:55:30.966Z,101816.63
2023-02-27T14:58:09.445Z,101813.00
2023-02-27T15:00:51.580Z,101831.54
2023-02-27T15:03:54.400Z,101829.12
2023-02-27T15:06:36.792Z,101841.61
2023-02-27T15:09:05.224Z,101841.61
2023-02-27T15:11:32.971Z,101832.75
2023-02-27T15:14:04.228Z,101838.80
2023-02-27T15:16:38.725Z,101836.38
2023-02-27T15:19:24.229Z,101841.22
2023-02-27T15:22:05.189Z,101832.36
2023-02-27T15:24:49.562Z,101835.17
2023-02-27T15:27:31.213Z,101838.41
2023-02-27T15:30:00.658Z,101850.48
2023-02-27T15:32:39.171Z,101841.22
2023-02-27T15:35:13.554Z,101852.50
2023-02-27T15:37:42.260Z,101850.84
2023-02-27T15:40:20.322Z,101841.58
2023-02-27T15:42:48.763Z,101855.64
2023-02-27T15:45:21.732Z,101845.18
2023-02-27T15:47:50.003Z,101856.85
2023-02-27T15:50:17.632Z,101857.63
2023-02-27T15:53:01.768Z,101865.29
2023-02-27T15:55:33.768Z,101862.05
2023-02-27T15:58:03.654Z,101870.87
2023-02-27T16:00:34.602Z,101863.65
2023-02-27T16:03:02.741Z,101874.93
2023-02-27T16:05:42.976Z,101878.95
2023-02-27T16:08:19.517Z,101891.02
2023-02-27T16:10:48.263Z,101885.76
2023-02-27T16:13:39.772Z,101884.94
2023-02-27T16:16:22.416Z,101891.38
2023-02-27T16:19:00.920Z,101899.03
2023-02-27T16:21:32.309Z,101901.45
2023-02-27T16:24:19.524Z,101908.68
2023-02-27T16:26:52.565Z,101912.27
2023-02-27T16:29:22.990Z,101907.86
2023-02-27T16:31:55.018Z,101909.50
2023-02-27T16:34:46.566Z,101920.75
2023-02-27T16:37:28.710Z,101919.50
2023-02-27T16:39:56.480Z,101923.92
2023-02-27T16:42:24.406Z,101927.55
2023-02-27T16:44:52.324Z,101923.10
2023-02-27T16:47:20.801Z,101936.38
2023-02-27T16:49:50.593Z,101941.58
2023-02-27T16:52:18.356Z,101931.90
2023-02-27T16:54:46.057Z,101935.13
2023-02-27T16:57:14.996Z,101937.52
2023-02-27T16:59:42.824Z,101940.76
2023-02-27T17:02:15.556Z,101945.56
2023-02-27T17:04:49.113Z,101948.37
2023-02-27T17:07:18.866Z,101946.38
2023-02-27T17:09:47.910Z,101951.23
2023-02-27T17:12:15.981Z,101951.23
2023-02-27T17:14:44.110Z,101951.65
2023-02-27T17:17:12.590Z,101961.30
2023-02-27T17:19:40.658Z,101961.30
2023-02-27T17:22:08.503Z,101959.30
2023-02-27T17:24:36.252Z,101973.39
2023-02-27T17:27:04.253Z,101962.47
2023-02-27T17:29:32.530Z,101965.71
2023-02-27T17:32:00.784Z,101962.44
2023-02-27T17:34:28.611Z,101976.53
2023-02-27T17:36:56.445Z,101979.34
2023-02-27T17:39:24.193Z,101984.58
2023-02-27T17:41:53.968Z,101989.77
2023-02-27T17:44:21.629Z,101997.04
2023-02-27T17:46:49.491Z,101989.38
2023-02-27T17:49:17.194Z,101999.06
2023-02-27T17:51:45.050Z,102004.27
2023-02-27T17:54:12.740Z,102011.45
2023-02-27T17:56:40.620Z,102019.08
2023-02-27T17:59:09.669Z,102017.05
2023-02-27T18:01:37.916Z,102029.12
2023-02-27T18:04:08.018Z,102025.84
2023-02-27T18:06:35.889Z,102032.65
2023-02-27T18:09:03.827Z,102034.58
2023-02-27T18:11:31.621Z,102029.73
2023-02-27T18:13:59.633Z,102032.91
2023-02-27T18:16:27.773Z,102037.68
2023-02-27T18:18:55.796Z,102033.63
2023-02-27T18:21:24.725Z,102041.21
2023-02-27T18:23:53.430Z,102035.98
2023-02-27T18:26:30.466Z,102038.76
2023-02-27T18:29:01.287Z,102047.98
2023-02-27T18:31:31.978Z,102042.29
2023-02-27T18:34:00.583Z,102046.64
2023-02-27T18:36:30.335Z,102053.48
2023-02-27T18:38:58.866Z,102052.23
2023-02-27T18:41:27.471Z,102046.97
2023-02-27T18:43:55.234Z,102042.95
2023-02-27T18:46:23.764Z,102058.61
2023-02-27T18:48:51.929Z,102064.98
2023-02-27T18:51:19.812Z,102056.55
2023-02-27T18:53:49.971Z,102046.91
2023-02-27T18:56:24.210Z,102054.91
2023-02-27T18:58:53.073Z,102059.79
2023-02-27T19:01:32.382Z,102057.76
2023-02-27T19:04:04.609Z,102055.77
2023-02-27T19:06:38.012Z,102050.99
2023-02-27T19:09:07.031Z,102049.36
2023-02-27T19:11:35.723Z,102050.99
2023-02-27T19:14:05.533Z,102048.60
2023-02-27T19:16:33.399Z,102051.38
2023-02-27T19:19:03.025Z,102047.36
2023-02-27T19:21:30.736Z,102048.57
2023-02-27T19:23:58.823Z,102048.12
2023-02-27T19:26:27.076Z,102056.55
2023-02-27T19:28:56.832Z,102052.13
2023-02-27T19:31:25.899Z,102056.19
2023-02-27T19:33:53.859Z,102049.78
2023-02-27T19:36:23.771Z,102049.78
2023-02-27T19:38:51.693Z,102059.03
2023-02-27T19:41:20.578Z,102048.57
2023-02-27T19:43:49.117Z,102049.78
2023-02-27T19:46:25.455Z,102052.17
2023-02-27T19:48:54.934Z,102044.98
2023-02-27T19:51:22.776Z,102051.02
2023-02-27T19:53:52.207Z,102040.98
2023-02-27T19:56:23.042Z,102046.97
2023-02-27T19:58:51.726Z,102040.98
2023-02-27T20:01:28.317Z,102029.77
2023-02-27T20:03:57.089Z,102029.77
2023-02-27T20:06:27.816Z,102039.80
2023-02-27T20:08:56.756Z,102036.18
2023-02-27T20:11:24.709Z,102033.01
2023-02-27T20:13:52.929Z,102031.77
2023-02-27T20:16:23.385Z,102021.70
2023-02-27T20:18:51.361Z,102023.33
2023-02-27T20:21:21.358Z,102033.37
2023-02-27T20:23:51.336Z,102024.50
2023-02-27T20:26:29.838Z,102018.91
2023-02-27T20:29:01.945Z,102024.18
2023-02-27T20:31:32.989Z,102021.37
2023-02-27T20:34:02.441Z,102020.16
2023-02-27T20:36:30.261Z,102022.97
2023-02-27T20:38:58.175Z,102019.37
2023-02-27T20:41:29.899Z,102017.41
2023-02-27T20:43:58.156Z,102006.55
2023-02-27T20:46:29.645Z,102012.60
2023-02-27T20:49:01.321Z,101996.97
2023-02-27T20:51:32.702Z,102011.81
2023-02-27T20:54:01.277Z,102000.57
2023-02-27T20:56:34.693Z,102007.34
2023-02-27T20:59:07.960Z,102001.71
2023-02-27T21:01:38.223Z,101998.45
2023-02-27T21:04:06.424Z,101998.02
2023-02-27T21:06:35.897Z,101994.02
2023-02-27T21:09:06.889Z,101990.01
2023-02-27T21:11:34.914Z,101995.63
2023-02-27T21:14:10.208Z,101993.14
2023-02-27T21:16:39.798Z,102001.16
2023-02-27T21:19:08.484Z,101978.98
2023-02-27T21:21:37.629Z,101991.45
2023-02-27T21:24:06.738Z,101983.79
2023-02-27T21:26:38.972Z,101985.76
2023-02-27T21:29:10.135Z,101981.34
2023-02-27T21:31:39.589Z,101986.54
2023-02-27T21:34:12.402Z,101986.12
2023-02-27T21:36:43.434Z,101986.96
2023-02-27T21:39:26.973Z,101982.91
2023-02-27T21:41:55.364Z,101986.08
2023-02-27T21:44:27.720Z,101975.20
2023-02-27T21:46:55.571Z,101974.38
2023-02-27T21:49:28.813Z,101966.76
2023-02-27T21:51:56.875Z,101969.93
2023-02-27T21:54:25.104Z,101963.91
2023-02-27T21:56:52.931Z,101962.27
2023-02-27T21:59:21.847Z,101963.91
2023-02-27T22:01:49.630Z,101959.86
2023-02-27T22:04:19.625Z,101958.65
2023-02-27T22:06:48.781Z,101963.95
2023-02-27T22:09:16.628Z,101955.93
2023-02-27T22:11:44.461Z,101956.75
2023-02-27T22:14:13.533Z,101953.91
2023-02-27T22:16:41.884Z,101952.70
2023-02-27T22:19:11.978Z,101949.52
2023-02-27T22:21:40.479Z,101962.37
2023-02-27T22:24:08.910Z,101952.76
2023-02-27T22:26:37.112Z,101954.76
2023-02-27T22:29:06.255Z,101959.98
2023-02-27T22:31:36.601Z,101951.23
2023-02-27T22:34:08.347Z,101954.82
2023-02-27T22:36:36.922Z,101954.40
2023-02-27T22:39:06.633Z,101954.40
2023-02-27T22:41:37.050Z,101958.41
2023-02-27T22:44:05.356Z,101956.75
2023-02-27T22:46:38.568Z,101943.93
2023-02-27T22:49:16.824Z,101942.36
2023-02-27T22:51:44.634Z,101946.77
2023-02-27T22:54:14.645Z,101942.75
2023-02-27T22:56:42.965Z,101952.01
2023-02-27T22:59:11.418Z,101939.55
2023-02-27T23:01:39.609Z,101939.13
2023-02-27T23:04:10.157Z,101940.34
2023-02-27T23:06:40.712Z,101931.90
2023-02-27T23:09:11.896Z,101943.60
2023-02-27T23:11:39.787Z,101931.18
2023-02-27T23:14:07.977Z,101938.05
2023-02-27T23:16:36.290Z,101932.81
2023-02-27T23:19:05.228Z,101945.30
2023-02-27T23:21:35.561Z,101936.87
2023-02-27T23:24:11.598Z,101932.78
2023-02-27T23:26:41.391Z,101934.41
2023-02-27T23:29:10.256Z,101933.63
2023-02-27T23:31:39.210Z,101935.63
2023-02-27T23:34:08.134Z,101928.01
2023-02-27T23:36:37.145Z,101930.42
2023-02-27T23:39:06.161Z,101927.98
2023-02-27T23:41:35.175Z,101932.78
2023-02-27T23:44:21.838Z,101935.95
2023-02-27T23:46:49.617Z,101928.34
2023-02-27T23:49:17.407Z,101938.41
2023-02-27T23:51:45.141Z,101929.51
2023-02-27T23:54:13.035Z,101933.14
2023-02-27T23:56:40.820Z,101931.99
2023-02-27T23:59:08.801Z,101924.73
